Time;durP1;ratioP1;P1;durP2;ratioP2;P2;SDS_P1;SDS_P2;PMS_P1;PMS_P2;Temp;Humidity;BMP_temperature;BMP_pressure;BME280_temperature;BME280_humidity;BME280_pressure;Samples;Min_cycle;Max_cycle;Signal;HPM_P1;HPM_P2
2022/12/03 00:00:59;;;;;;;10.90;5.87;;;4.10;99.90;;;;;;5108708;28;20028;-75
2022/12/03 00:03:24;;;;;;;8.60;5.03;;;4.20;99.90;;;;;;5106367;28;20027;-73
2022/12/03 00:05:50;;;;;;;9.50;5.40;;;4.20;99.90;;;;;;5099281;28;20027;-73
2022/12/03 00:08:16;;;;;;;10.43;5.10;;;4.20;99.90;;;;;;5100384;28;20027;-73
2022/12/03 00:10:41;;;;;;;11.43;5.73;;;4.20;99.90;;;;;;5091363;28;20036;-74
2022/12/03 00:13:07;;;;;;;8.97;5.13;;;4.20;99.90;;;;;;5094010;28;20027;-75
2022/12/03 00:15:32;;;;;;;12.57;5.97;;;4.20;99.90;;;;;;5112702;28;20397;-74
2022/12/03 00:17:58;;;;;;;9.23;5.70;;;4.20;99.90;;;;;;5102211;28;20032;-74
2022/12/03 00:20:25;;;;;;;12.13;5.90;;;4.20;99.90;;;;;;5091672;28;20024;-75
2022/12/03 00:22:50;;;;;;;11.63;6.10;;;4.20;99.90;;;;;;5107339;28;20469;-74
2022/12/03 00:25:16;;;;;;;10.80;5.73;;;4.20;99.90;;;;;;5096931;28;20110;-75
2022/12/03 00:27:42;;;;;;;12.00;6.00;;;4.20;99.90;;;;;;5099107;28;20027;-75
2022/12/03 00:30:09;;;;;;;9.17;5.30;;;4.10;99.90;;;;;;5111873;28;20024;-74
2022/12/03 00:32:35;;;;;;;10.13;5.40;;;4.10;99.90;;;;;;5098146;28;20024;-74
2022/12/03 00:35:00;;;;;;;9.50;5.17;;;4.10;99.90;;;;;;5108186;28;20190;-74
2022/12/03 00:37:26;;;;;;;11.20;5.47;;;4.20;99.90;;;;;;5095295;28;20024;-74
2022/12/03 00:39:51;;;;;;;13.00;5.73;;;4.20;99.90;;;;;;5102903;28;20027;-74
2022/12/03 00:42:17;;;;;;;10.37;5.43;;;4.20;99.90;;;;;;5101594;28;20024;-74
2022/12/03 00:44:43;;;;;;;11.97;5.97;;;4.20;99.90;;;;;;5097097;28;20035;-74
2022/12/03 00:47:08;;;;;;;12.03;5.87;;;4.20;99.90;;;;;;5110639;28;20038;-74
2022/12/03 00:49:34;;;;;;;12.93;5.77;;;4.20;99.90;;;;;;5096133;28;20024;-74
2022/12/03 00:52:00;;;;;;;12.53;5.80;;;4.10;99.90;;;;;;5094732;28;20059;-75
2022/12/03 00:54:25;;;;;;;11.43;5.70;;;4.10;99.90;;;;;;5094447;28;20051;-74
2022/12/03 00:56:51;;;;;;;12.70;6.03;;;4.20;99.90;;;;;;5094692;28;20469;-74
2022/12/03 00:59:17;;;;;;;11.53;6.10;;;4.20;99.90;;;;;;5114375;28;20031;-74
2022/12/03 01:01:42;;;;;;;11.13;5.80;;;4.20;99.90;;;;;;5115964;28;20019;-75
2022/12/03 01:04:08;;;;;;;10.83;6.23;;;4.20;99.90;;;;;;5115839;28;20031;-74
2022/12/03 01:06:33;;;;;;;13.07;6.57;;;4.20;99.90;;;;;;5101808;28;20027;-74
2022/12/03 01:08:59;;;;;;;13.23;6.30;;;4.20;99.90;;;;;;5095312;28;20465;-75
2022/12/03 01:11:36;;;;;;;11.27;6.03;;;4.20;99.90;;;;;;5110062;28;20016;-74
2022/12/03 01:14:16;;;;;;;13.53;6.30;;;4.10;99.90;;;;;;5094197;28;20063;-74
2022/12/03 01:16:42;;;;;;;10.73;5.87;;;4.20;99.90;;;;;;5109591;28;20058;-74
2022/12/03 01:19:09;;;;;;;11.77;6.10;;;4.20;99.90;;;;;;5096356;28;20042;-74
2022/12/03 01:21:36;;;;;;;13.20;6.20;;;4.20;99.90;;;;;;5094515;28;20024;-74
2022/12/03 01:24:02;;;;;;;12.07;5.87;;;4.20;99.90;;;;;;5096688;28;20076;-75
2022/12/03 01:26:28;;;;;;;11.50;6.20;;;4.20;99.90;;;;;;5115890;28;20027;-74
2022/12/03 01:28:53;;;;;;;13.13;6.57;;;4.30;99.90;;;;;;5098657;28;20498;-74
2022/12/03 01:34:04;;;;;;;11.80;5.87;;;4.20;99.90;;;;;;5115332;28;20031;-75
2022/12/03 01:36:29;;;;;;;13.03;6.27;;;4.30;99.90;;;;;;5114569;28;20059;-74
2022/12/03 01:38:55;;;;;;;13.20;6.40;;;4.30;99.90;;;;;;5114431;28;20131;-74
2022/12/03 01:41:23;;;;;;;13.27;6.33;;;4.30;99.90;;;;;;5109742;28;20020;-74
2022/12/03 01:43:49;;;;;;;14.83;6.67;;;4.30;99.90;;;;;;5103122;28;20075;-74
2022/12/03 01:46:20;;;;;;;14.13;6.60;;;4.30;99.90;;;;;;5101819;28;20032;-74
2022/12/03 01:48:47;;;;;;;12.27;6.23;;;4.20;99.90;;;;;;5095410;28;20024;-75
2022/12/03 01:51:13;;;;;;;12.67;6.10;;;4.30;99.90;;;;;;5109883;28;20035;-74
2022/12/03 01:53:39;;;;;;;13.33;6.47;;;4.30;99.90;;;;;;5101525;28;20016;-74
2022/12/03 01:56:05;;;;;;;15.00;6.13;;;4.30;99.90;;;;;;5102383;28;20055;-75
2022/12/03 01:58:31;;;;;;;15.70;6.77;;;4.30;99.90;;;;;;5114000;28;20028;-74
2022/12/03 02:01:00;;;;;;;12.07;6.40;;;4.30;99.90;;;;;;5096684;28;20031;-75
2022/12/03 02:03:27;;;;;;;12.33;6.67;;;4.30;99.90;;;;;;5094533;28;20035;-74
2022/12/03 02:05:52;;;;;;;11.07;6.10;;;4.30;99.90;;;;;;5094441;28;20055;-74
2022/12/03 02:08:36;;;;;;;15.27;7.27;;;4.30;99.90;;;;;;5106147;28;20052;-75
2022/12/03 02:11:17;;;;;;;14.77;7.13;;;4.30;99.90;;;;;;5114649;28;20052;-75
2022/12/03 02:13:43;;;;;;;15.60;6.57;;;4.30;99.90;;;;;;5102136;28;20039;-73
2022/12/03 02:16:09;;;;;;;14.90;6.13;;;4.30;99.90;;;;;;5102930;28;20048;-74
2022/12/03 02:18:35;;;;;;;15.37;7.27;;;4.30;99.90;;;;;;5113744;28;20061;-74
2022/12/03 02:21:12;;;;;;;13.23;6.50;;;4.20;99.90;;;;;;5113092;28;20030;-75
2022/12/03 02:23:53;;;;;;;14.50;6.63;;;4.20;99.90;;;;;;5100573;28;20019;-74
2022/12/03 02:26:18;;;;;;;14.07;6.87;;;4.30;99.90;;;;;;5095798;28;20173;-75
2022/12/03 02:28:44;;;;;;;14.60;6.70;;;4.30;99.90;;;;;;5108922;28;20380;-74
2022/12/03 02:31:10;;;;;;;15.40;6.77;;;4.30;99.90;;;;;;5114120;28;20031;-74
2022/12/03 02:33:35;;;;;;;12.87;6.63;;;4.30;99.90;;;;;;5108499;28;20020;-74
2022/12/03 02:36:01;;;;;;;12.63;6.30;;;4.30;99.90;;;;;;5102370;28;20020;-75
2022/12/03 02:38:29;;;;;;;11.77;5.80;;;4.30;99.90;;;;;;5100918;28;20032;-74
2022/12/03 02:40:58;;;;;;;12.60;6.47;;;4.30;99.90;;;;;;5109785;28;20035;-74
2022/12/03 02:43:24;;;;;;;13.00;6.90;;;4.30;99.90;;;;;;5096824;28;20024;-74
2022/12/03 02:45:56;;;;;;;16.03;7.07;;;4.30;99.90;;;;;;5105085;28;20024;-74
2022/12/03 02:48:32;;;;;;;13.15;6.85;;;4.30;99.90;;;;;;5105822;28;20031;-74
2022/12/03 02:51:00;;;;;;;12.50;6.93;;;4.30;99.90;;;;;;5112501;28;20084;-75
2022/12/03 02:53:29;;;;;;;12.30;6.40;;;4.30;99.90;;;;;;5093839;28;20020;-74
2022/12/03 02:55:58;;;;;;;13.87;7.03;;;4.30;99.90;;;;;;5102687;28;20029;-74
2022/12/03 02:58:25;;;;;;;13.00;6.63;;;4.30;99.90;;;;;;5093296;28;20032;-74
2022/12/03 03:00:52;;;;;;;14.03;7.10;;;4.30;99.90;;;;;;5093856;28;20020;-75
2022/12/03 03:03:19;;;;;;;14.87;7.00;;;4.30;99.90;;;;;;5096465;28;20027;-74
2022/12/03 03:05:47;;;;;;;14.23;7.17;;;4.30;99.90;;;;;;5104972;28;20027;-74
2022/12/03 03:08:13;;;;;;;16.83;7.67;;;4.30;99.90;;;;;;5102657;28;20024;-74
2022/12/03 03:10:40;;;;;;;12.53;6.33;;;4.30;99.90;;;;;;5098775;28;20481;-74
2022/12/03 03:13:10;;;;;;;15.40;7.07;;;4.30;99.90;;;;;;5108159;28;20038;-74
2022/12/03 03:15:37;;;;;;;15.23;6.97;;;4.30;99.90;;;;;;5093631;28;20131;-73
2022/12/03 03:18:03;;;;;;;17.00;7.63;;;4.30;99.90;;;;;;5093073;28;20524;-75
2022/12/03 03:20:29;;;;;;;16.17;7.37;;;4.30;99.90;;;;;;5105676;28;20479;-74
2022/12/03 03:23:09;;;;;;;16.60;7.53;;;4.30;99.90;;;;;;5095326;28;20095;-74
2022/12/03 03:25:35;;;;;;;14.60;7.27;;;4.30;99.90;;;;;;5103529;28;20119;-74
2022/12/03 03:28:01;;;;;;;16.83;7.80;;;4.30;99.90;;;;;;5103736;28;20035;-75
2022/12/03 03:30:27;;;;;;;15.60;7.53;;;4.30;99.90;;;;;;5104723;28;20023;-74
2022/12/03 03:32:52;;;;;;;15.20;6.70;;;4.30;99.90;;;;;;5096691;28;20031;-75
2022/12/03 03:35:18;;;;;;;15.40;7.60;;;4.20;99.90;;;;;;5109349;28;20047;-74
2022/12/03 03:37:44;;;;;;;17.50;7.93;;;4.30;99.90;;;;;;5099014;28;20129;-73
2022/12/03 03:40:10;;;;;;;15.73;7.50;;;4.30;99.90;;;;;;5102169;28;20369;-75
2022/12/03 03:42:37;;;;;;;17.37;7.10;;;4.20;99.90;;;;;;5092068;28;20385;-75
2022/12/03 03:45:04;;;;;;;16.93;8.37;;;4.30;99.90;;;;;;5110820;28;20470;-75
2022/12/03 03:47:29;;;;;;;16.27;6.93;;;4.30;99.90;;;;;;5113290;28;20081;-74
2022/12/03 03:49:55;;;;;;;16.67;7.90;;;4.30;99.90;;;;;;5102794;28;20097;-74
2022/12/03 03:52:21;;;;;;;14.00;6.70;;;4.30;99.90;;;;;;5104395;28;20023;-74
2022/12/03 03:54:47;;;;;;;16.13;7.23;;;4.30;99.90;;;;;;5104914;28;20028;-74
2022/12/03 03:57:13;;;;;;;15.87;7.67;;;4.30;99.90;;;;;;5108264;28;20427;-74
2022/12/03 03:59:38;;;;;;;15.67;7.50;;;4.30;99.90;;;;;;5099065;28;20043;-74
2022/12/03 04:02:04;;;;;;;14.23;7.20;;;4.30;99.90;;;;;;5100869;28;20112;-75
2022/12/03 04:04:34;;;;;;;13.33;6.50;;;4.20;99.90;;;;;;5091688;28;20492;-75
2022/12/03 04:06:59;;;;;;;16.40;7.20;;;4.20;99.90;;;;;;5091738;28;20032;-73
2022/12/03 04:09:25;;;;;;;17.30;7.47;;;4.20;99.90;;;;;;5092418;28;20024;-74
2022/12/03 04:14:34;;;;;;;14.80;6.73;;;4.20;99.90;;;;;;5092836;28;20038;-74
2022/12/03 04:17:00;;;;;;;15.13;6.33;;;4.20;99.90;;;;;;5092950;28;20131;-75
2022/12/03 04:19:25;;;;;;;14.37;7.47;;;4.20;99.90;;;;;;5090289;28;20024;-74
2022/12/03 04:24:35;;;;;;;16.63;7.60;;;4.20;99.90;;;;;;5092864;28;20538;-74
2022/12/03 04:29:45;;;;;;;18.60;7.60;;;4.10;99.90;;;;;;5092500;28;20023;-74
2022/12/03 04:37:38;;;;;;;18.27;8.10;;;4.20;99.90;;;;;;5092347;28;20040;-75
2022/12/03 04:40:59;;;;;;;18.20;8.23;;;4.20;99.90;;;;;;5091969;28;20028;-76
2022/12/03 04:42:50;;;;;;;19.60;8.03;;;4.10;99.90;;;;;;5092062;28;20067;-75
2022/12/03 04:45:16;;;;;;;17.57;7.63;;;4.10;99.90;;;;;;5091798;28;20458;-75
2022/12/03 04:47:41;;;;;;;20.33;8.53;;;4.20;99.90;;;;;;5091409;28;20028;-75
2022/12/03 04:50:07;;;;;;;18.57;8.50;;;4.20;99.90;;;;;;5090538;28;20024;-75
2022/12/03 04:52:33;;;;;;;19.17;8.90;;;4.20;99.90;;;;;;5092516;28;20047;-75
2022/12/03 04:54:58;;;;;;;19.33;8.57;;;4.10;99.90;;;;;;5092430;28;20032;-75
2022/12/03 04:57:24;;;;;;;20.00;8.47;;;4.20;99.90;;;;;;5090386;28;20038;-75
2022/12/03 04:59:49;;;;;;;23.93;9.57;;;4.10;99.90;;;;;;5091291;28;20393;-75
2022/12/03 05:02:15;;;;;;;20.73;8.53;;;4.10;99.90;;;;;;5090400;28;20024;-75
2022/12/03 05:04:40;;;;;;;20.80;9.77;;;4.10;99.90;;;;;;5092482;28;20059;-75
2022/12/03 05:07:06;;;;;;;19.07;8.67;;;4.10;99.90;;;;;;5090578;28;20453;-75
2022/12/03 05:09:32;;;;;;;20.23;8.20;;;4.10;99.90;;;;;;5090966;28;20422;-75
2022/12/03 05:11:57;;;;;;;19.90;8.67;;;4.10;99.90;;;;;;5092522;28;20031;-74
2022/12/03 05:14:23;;;;;;;21.47;8.47;;;4.10;99.90;;;;;;5091558;28;20036;-75
2022/12/03 05:16:48;;;;;;;21.87;8.80;;;4.00;99.90;;;;;;5090770;28;20137;-75
2022/12/03 05:19:14;;;;;;;17.80;9.10;;;4.00;99.90;;;;;;5090345;28;20024;-75
2022/12/03 05:21:39;;;;;;;20.07;8.83;;;4.10;99.90;;;;;;5090906;28;20047;-75
2022/12/03 05:24:05;;;;;;;23.20;8.87;;;4.10;99.90;;;;;;5091955;28;20031;-76
2022/12/03 05:26:30;;;;;;;19.23;8.17;;;4.10;99.90;;;;;;5090440;28;20396;-74
2022/12/03 05:28:56;;;;;;;20.80;9.10;;;4.10;99.90;;;;;;5092198;28;20032;-74
2022/12/03 05:31:22;;;;;;;21.43;9.27;;;4.00;99.90;;;;;;5092758;28;20035;-74
2022/12/03 05:33:48;;;;;;;20.73;9.67;;;4.00;99.90;;;;;;5094676;28;20020;-74
2022/12/03 05:36:13;;;;;;;22.17;9.10;;;4.00;99.90;;;;;;5093538;28;20111;-75
2022/12/03 05:38:39;;;;;;;21.43;9.03;;;4.00;99.90;;;;;;5095615;28;20028;-74
2022/12/03 05:42:52;;;;;;;22.67;9.23;;;4.00;99.90;;;;;;5094406;28;20036;-74
2022/12/03 05:43:50;;;;;;;20.37;8.73;;;4.00;99.90;;;;;;5094966;28;20032;-74
2022/12/03 05:46:16;;;;;;;21.77;8.87;;;4.00;99.90;;;;;;5093019;28;20024;-74
2022/12/03 05:48:41;;;;;;;24.67;9.57;;;4.00;99.90;;;;;;5095499;28;20024;-74
2022/12/03 05:51:07;;;;;;;23.60;9.70;;;4.00;99.90;;;;;;5094056;28;20024;-75
2022/12/03 05:53:33;;;;;;;25.03;9.77;;;4.00;99.90;;;;;;5095330;28;20024;-74
2022/12/03 05:55:58;;;;;;;23.97;9.60;;;4.00;99.90;;;;;;5094135;28;20025;-74
2022/12/03 05:58:24;;;;;;;25.23;9.87;;;4.00;99.90;;;;;;5094607;28;20036;-74
2022/12/03 06:00:49;;;;;;;26.67;10.23;;;4.00;99.90;;;;;;5095153;28;20024;-74
2022/12/03 06:03:15;;;;;;;26.03;10.87;;;4.00;99.90;;;;;;5094030;28;20477;-74
2022/12/03 06:05:40;;;;;;;24.57;9.27;;;4.00;99.90;;;;;;5094750;28;20107;-74
2022/12/03 06:08:06;;;;;;;26.47;10.27;;;4.00;99.90;;;;;;5094841;28;20028;-74
2022/12/03 06:10:31;;;;;;;23.23;9.67;;;4.00;99.90;;;;;;5093118;28;20032;-74
2022/12/03 06:12:57;;;;;;;25.53;9.20;;;4.00;99.90;;;;;;5093691;28;20035;-74
2022/12/03 06:15:23;;;;;;;26.80;10.40;;;4.00;99.90;;;;;;5094011;28;20051;-74
2022/12/03 06:17:48;;;;;;;25.83;10.27;;;4.00;99.90;;;;;;5093783;28;20044;-74
2022/12/03 06:20:17;;;;;;;22.57;9.63;;;4.00;99.90;;;;;;5093032;28;20020;-74
2022/12/03 06:22:43;;;;;;;29.50;10.27;;;4.00;99.90;;;;;;5094824;28;20376;-73
2022/12/03 06:25:09;;;;;;;21.40;9.67;;;4.00;99.90;;;;;;5093367;28;20024;-76
2022/12/03 06:27:36;;;;;;;26.13;9.93;;;3.90;99.90;;;;;;5093234;28;20028;-74
2022/12/03 06:30:03;;;;;;;22.70;9.97;;;3.90;99.90;;;;;;5094721;28;20054;-74
2022/12/03 06:32:29;;;;;;;27.70;10.20;;;3.80;99.90;;;;;;5092702;28;20036;-74
2022/12/03 06:34:54;;;;;;;26.27;10.67;;;3.80;99.90;;;;;;5093223;28;20066;-74
2022/12/03 06:37:20;;;;;;;23.70;9.87;;;3.70;99.90;;;;;;5092525;28;20047;-74
2022/12/03 06:39:45;;;;;;;25.87;10.57;;;3.70;99.90;;;;;;5093477;28;20128;-74
2022/12/03 06:42:11;;;;;;;23.97;9.97;;;3.60;99.90;;;;;;5093548;28;20507;-75
2022/12/03 06:44:36;;;;;;;22.10;9.60;;;3.60;99.90;;;;;;5094222;28;20051;-75
2022/12/03 06:47:02;;;;;;;25.73;10.53;;;3.60;99.90;;;;;;5093273;28;20534;-75
2022/12/03 06:49:27;;;;;;;24.20;10.10;;;3.60;99.90;;;;;;5093829;28;20028;-75
2022/12/03 06:51:53;;;;;;;22.77;9.53;;;3.50;99.90;;;;;;5093105;28;20028;-74
2022/12/03 06:54:19;;;;;;;26.70;10.50;;;3.50;99.90;;;;;;5093068;28;20488;-75
2022/12/03 06:56:45;;;;;;;24.83;9.73;;;3.40;99.90;;;;;;5093304;28;20032;-74
2022/12/03 06:59:11;;;;;;;23.60;10.20;;;3.40;99.90;;;;;;5093876;28;20082;-75
2022/12/03 07:01:37;;;;;;;24.63;10.03;;;3.40;99.90;;;;;;5092520;28;20547;-74
2022/12/03 07:04:03;;;;;;;24.20;10.27;;;3.30;99.90;;;;;;5092738;28;20350;-74
2022/12/03 07:06:28;;;;;;;26.53;10.50;;;3.30;99.90;;;;;;5091843;28;20115;-73
2022/12/03 07:08:54;;;;;;;24.80;10.20;;;3.30;99.90;;;;;;5093535;28;20382;-73
2022/12/03 07:11:31;;;;;;;25.63;9.83;;;3.30;99.90;;;;;;5091671;28;20031;-73
2022/12/03 07:13:58;;;;;;;31.27;11.03;;;3.30;99.90;;;;;;5092683;28;20050;-73
2022/12/03 07:16:24;;;;;;;22.43;9.23;;;3.30;99.90;;;;;;5091544;28;20132;-74
2022/12/03 07:18:49;;;;;;;23.43;10.43;;;3.30;99.90;;;;;;5092308;28;20118;-74
2022/12/03 07:21:15;;;;;;;25.07;10.40;;;3.30;99.90;;;;;;5091884;28;20024;-76
2022/12/03 07:23:41;;;;;;;25.43;9.30;;;3.30;99.90;;;;;;5094019;28;20040;-73
2022/12/03 07:26:06;;;;;;;27.07;10.87;;;3.20;99.90;;;;;;5092234;28;20381;-74
2022/12/03 07:28:32;;;;;;;31.97;11.40;;;3.30;99.90;;;;;;5091627;28;20038;-74
2022/12/03 07:30:57;;;;;;;23.63;11.00;;;3.20;99.90;;;;;;5093405;28;20055;-73
2022/12/03 07:33:23;;;;;;;26.60;10.93;;;3.20;99.90;;;;;;5091580;28;20468;-74
2022/12/03 07:35:48;;;;;;;28.83;10.83;;;3.20;99.90;;;;;;5092026;28;20089;-74
2022/12/03 07:38:14;;;;;;;29.10;11.00;;;3.20;99.90;;;;;;5092513;28;20076;-75
2022/12/03 07:40:39;;;;;;;27.33;10.23;;;3.20;99.90;;;;;;5091672;28;20031;-73
2022/12/03 07:43:05;;;;;;;22.17;9.60;;;3.10;99.90;;;;;;5092063;28;20359;-73
2022/12/03 07:45:31;;;;;;;28.83;10.53;;;3.10;99.90;;;;;;5091128;28;20032;-73
2022/12/03 07:47:56;;;;;;;28.73;10.67;;;3.10;99.90;;;;;;5091766;28;20032;-73
2022/12/03 07:50:22;;;;;;;30.03;10.80;;;3.10;99.90;;;;;;5090789;28;20028;-74
2022/12/03 07:52:47;;;;;;;28.87;11.47;;;3.10;99.90;;;;;;5091715;28;20096;-74
2022/12/03 07:55:13;;;;;;;28.80;11.07;;;3.10;99.90;;;;;;5092330;28;20062;-76
2022/12/03 07:57:39;;;;;;;30.10;10.97;;;3.00;99.90;;;;;;5091502;28;20126;-74
2022/12/03 08:00:06;;;;;;;31.20;12.73;;;3.10;99.90;;;;;;5093734;28;20638;-76
2022/12/03 08:02:31;;;;;;;32.23;11.33;;;3.10;99.90;;;;;;5100059;28;20396;-75
2022/12/03 08:04:57;;;;;;;27.67;11.23;;;3.10;99.90;;;;;;5108764;28;20026;-73
2022/12/03 08:07:22;;;;;;;27.17;10.43;;;3.10;99.90;;;;;;5108152;28;20015;-74
2022/12/03 08:09:49;;;;;;;29.93;11.67;;;3.10;99.90;;;;;;5110743;28;20153;-74
2022/12/03 08:12:20;;;;;;;29.70;11.90;;;3.10;99.90;;;;;;5109549;28;20024;-75
2022/12/03 08:14:45;;;;;;;31.20;12.30;;;3.10;99.90;;;;;;5109569;28;20037;-73
2022/12/03 08:17:13;;;;;;;36.87;13.63;;;3.10;99.90;;;;;;5112537;28;20499;-73
2022/12/03 08:19:43;;;;;;;29.80;11.50;;;3.10;99.90;;;;;;5110231;28;20070;-73
2022/12/03 08:22:13;;;;;;;31.27;11.33;;;3.10;99.90;;;;;;5102554;28;20072;-73
2022/12/03 08:24:39;;;;;;;33.17;12.17;;;3.10;99.90;;;;;;5111670;28;20030;-73
2022/12/03 08:27:16;;;;;;;27.43;11.50;;;3.10;99.90;;;;;;5110805;28;20454;-73
2022/12/03 08:29:42;;;;;;;27.63;11.90;;;3.10;99.90;;;;;;5112056;28;20023;-74
2022/12/03 08:32:10;;;;;;;29.23;10.97;;;3.10;99.90;;;;;;5111188;28;20019;-73
2022/12/03 08:34:41;;;;;;;26.90;10.57;;;3.00;99.90;;;;;;5111374;28;20022;-74
2022/12/03 08:37:16;;;;;;;30.25;11.02;;;3.00;99.90;;;;;;5102859;28;20081;-74
2022/12/03 08:39:47;;;;;;;30.73;12.10;;;3.10;99.90;;;;;;5112110;28;20097;-73
2022/12/03 08:45:28;;;;;;;33.33;12.00;;;3.10;99.90;;;;;;5109534;28;20042;-74
2022/12/03 08:48:23;;;;;;;36.10;11.95;;;3.10;99.90;;;;;;5097702;28;20040;-75
2022/12/03 08:50:49;;;;;;;32.67;11.97;;;3.20;99.90;;;;;;5108962;28;20142;-76
2022/12/03 08:53:31;;;;;;;33.47;11.43;;;3.30;99.90;;;;;;5092050;28;20118;-74
2022/12/03 08:56:16;;;;;;;;;;;3.40;99.90;;;;;;5093500;28;20101;-73
2022/12/03 08:58:45;;;;;;;30.13;10.97;;;3.50;99.90;;;;;;5092133;28;19912;-73
2022/12/03 09:01:10;;;;;;;30.67;11.63;;;3.50;99.90;;;;;;5090884;28;20087;-72
2022/12/03 09:03:53;;;;;;;27.13;11.33;;;3.50;99.90;;;;;;5108814;28;20632;-74
2022/12/03 09:06:20;;;;;;;31.87;11.63;;;3.60;99.90;;;;;;5107321;28;20484;-73
2022/12/03 09:08:45;;;;;;;29.67;12.47;;;3.60;99.90;;;;;;5114978;28;20047;-73
2022/12/03 09:11:11;;;;;;;28.50;11.90;;;3.60;99.90;;;;;;5113450;28;20179;-73
2022/12/03 09:13:37;;;;;;;33.57;12.90;;;3.70;99.90;;;;;;5113544;28;20146;-73
2022/12/03 09:16:03;;;;;;;32.10;12.60;;;3.70;99.90;;;;;;5115547;28;20528;-73
2022/12/03 09:18:28;;;;;;;32.23;13.23;;;3.80;99.90;;;;;;5110034;28;20050;-74
2022/12/03 09:20:55;;;;;;;30.80;12.23;;;3.80;99.90;;;;;;5102469;28;20031;-73
2022/12/03 09:23:20;;;;;;;29.77;12.10;;;3.80;99.90;;;;;;5115132;28;20019;-75
2022/12/03 09:25:46;;;;;;;35.00;13.17;;;3.90;99.90;;;;;;5108884;28;20392;-73
2022/12/03 09:28:12;;;;;;;31.17;13.57;;;3.90;99.90;;;;;;5110070;28;20030;-73
2022/12/03 09:30:37;;;;;;;38.43;13.57;;;4.00;99.90;;;;;;5108260;28;20031;-73
2022/12/03 09:33:03;;;;;;;32.80;12.83;;;4.00;99.90;;;;;;5102044;28;20026;-74
2022/12/03 09:35:28;;;;;;;32.13;13.50;;;4.00;99.90;;;;;;5102186;28;20026;-73
2022/12/03 09:37:54;;;;;;;35.60;12.57;;;4.10;99.90;;;;;;5099880;28;20068;-73
2022/12/03 09:40:20;;;;;;;38.73;12.97;;;4.10;99.90;;;;;;5097701;28;20473;-75
2022/12/03 09:42:46;;;;;;;33.77;12.53;;;4.10;99.90;;;;;;5111000;28;20024;-73
2022/12/03 09:45:13;;;;;;;31.77;12.83;;;4.10;99.90;;;;;;5107713;28;20126;-74
2022/12/03 09:47:43;;;;;;;36.63;13.87;;;4.20;99.90;;;;;;5108248;28;20117;-74
2022/12/03 09:50:22;;;;;;;36.97;13.30;;;4.30;99.90;;;;;;5113660;28;20024;-74
2022/12/03 09:52:49;;;;;;;33.50;12.90;;;4.30;99.90;;;;;;5105486;28;20099;-75
2022/12/03 09:55:20;;;;;;;30.43;12.67;;;4.30;99.90;;;;;;5110023;28;20072;-74
2022/12/03 09:57:46;;;;;;;31.37;12.87;;;4.30;99.90;;;;;;5101543;28;20446;-73
2022/12/03 10:00:29;;;;;;;33.53;13.87;;;4.40;99.90;;;;;;5108637;28;20124;-72
2022/12/03 10:03:01;;;;;;;37.37;13.67;;;4.40;99.90;;;;;;5115165;28;20080;-73
2022/12/03 10:05:27;;;;;;;34.37;13.93;;;4.40;99.90;;;;;;5093096;28;20028;-75
2022/12/03 10:08:02;;;;;;;35.93;13.20;;;4.50;99.90;;;;;;5102882;28;20015;-74
2022/12/03 10:10:27;;;;;;;33.60;13.00;;;4.50;99.90;;;;;;5100061;28;20025;-72
2022/12/03 10:12:54;;;;;;;35.67;12.83;;;4.50;99.90;;;;;;5105001;28;20024;-73
2022/12/03 10:15:22;;;;;;;32.67;13.37;;;4.60;99.90;;;;;;5106030;28;20096;-78
2022/12/03 10:17:50;;;;;;;38.03;14.87;;;4.50;99.90;;;;;;5110241;28;20024;-73
2022/12/03 10:20:18;;;;;;;38.83;13.73;;;4.60;99.90;;;;;;5105898;28;20027;-72
2022/12/03 10:22:44;;;;;;;34.60;13.47;;;4.60;99.90;;;;;;5106794;28;20484;-73
2022/12/03 10:25:15;;;;;;;33.43;12.70;;;4.60;99.90;;;;;;5111724;28;20020;-73
2022/12/03 10:27:41;;;;;;;36.55;12.85;;;4.70;99.90;;;;;;5107084;28;20070;-73
2022/12/03 10:30:16;;;;;;;31.20;13.13;;;4.70;99.90;;;;;;5108747;28;20411;-74
2022/12/03 10:32:47;;;;;;;36.97;12.73;;;4.70;99.90;;;;;;5111958;28;20020;-74
2022/12/03 10:35:25;;;;;;;32.47;13.75;;;4.80;99.90;;;;;;5108260;28;20028;-73
2022/12/03 10:38:01;;;;;;;37.00;13.57;;;4.90;99.90;;;;;;5111790;28;20032;-73
2022/12/03 10:40:32;;;;;;;33.97;13.67;;;4.90;99.90;;;;;;5111698;28;20392;-72
2022/12/03 10:43:16;;;;;;;33.23;13.97;;;5.00;99.90;;;;;;5113007;28;20028;-72
2022/12/03 10:45:47;;;;;;;33.20;12.90;;;5.00;99.90;;;;;;5104067;28;20224;-72
2022/12/03 10:48:29;;;;;;;33.20;13.93;;;5.00;99.90;;;;;;5096735;28;20127;-72
2022/12/03 10:50:57;;;;;;;40.43;14.93;;;5.00;99.90;;;;;;5108500;28;20111;-73
2022/12/03 10:53:26;;;;;;;38.00;15.37;;;5.00;99.90;;;;;;5106773;28;20027;-75
2022/12/03 10:55:57;;;;;;;37.93;14.80;;;5.00;99.90;;;;;;5101882;28;20027;-72
2022/12/03 10:58:26;;;;;;;38.40;14.00;;;5.10;99.90;;;;;;5104326;28;20449;-77
2022/12/03 11:00:54;;;;;;;39.73;15.13;;;5.10;99.90;;;;;;5109788;28;20130;-74
2022/12/03 11:03:27;;;;;;;39.00;14.13;;;5.10;99.90;;;;;;5113262;28;20015;-74
2022/12/03 11:05:55;;;;;;;38.33;14.93;;;5.20;99.90;;;;;;5110007;28;20081;-73
2022/12/03 11:08:27;;;;;;;37.50;14.80;;;5.30;99.90;;;;;;5097960;28;20074;-73
2022/12/03 11:11:05;;;;;;;36.67;14.50;;;5.30;99.90;;;;;;5096979;28;20370;-74
2022/12/03 11:13:31;;;;;;;36.37;14.47;;;5.30;99.90;;;;;;5098349;28;20503;-76
2022/12/03 11:15:57;;;;;;;35.40;14.53;;;5.30;99.90;;;;;;5107648;28;20048;-73
2022/12/03 11:18:35;;;;;;;34.23;14.27;;;5.40;99.90;;;;;;5096359;28;20077;-75
2022/12/03 11:21:10;;;;;;;33.60;14.30;;;5.40;99.90;;;;;;5110929;28;20027;-73
2022/12/03 11:23:47;;;;;;;37.83;14.47;;;5.40;99.90;;;;;;5105038;28;20047;-73
2022/12/03 11:26:37;;;;;;;37.20;14.17;;;5.40;99.90;;;;;;5103014;28;20024;-75
2022/12/03 11:29:11;;;;;;;39.77;13.83;;;5.40;99.90;;;;;;5104801;28;20117;-74
2022/12/03 11:31:43;;;;;;;38.77;14.57;;;5.50;99.90;;;;;;5110283;28;20018;-74
2022/12/03 11:34:17;;;;;;;38.17;14.60;;;5.50;99.90;;;;;;5108220;28;20030;-73
2022/12/03 11:37:11;;;;;;;41.17;14.07;;;5.50;99.90;;;;;;5096673;28;20472;-73
2022/12/03 11:39:53;;;;;;;40.93;15.30;;;5.60;99.90;;;;;;5090679;28;20024;-73
2022/12/03 11:42:25;;;;;;;37.67;14.83;;;5.60;99.90;;;;;;5104153;28;20055;-73
2022/12/03 11:45:07;;;;;;;40.35;14.63;;;5.60;99.90;;;;;;5105512;28;20110;-73
2022/12/03 11:47:35;;;;;;;;;;;5.60;99.90;;;;;;5105938;28;20476;-72
2022/12/03 11:50:18;;;;;;;42.10;14.83;;;5.60;99.90;;;;;;5105375;28;19912;-75
2022/12/03 11:52:44;;;;;;;;;;;5.70;99.90;;;;;;5099508;28;20554;-73
2022/12/03 11:55:27;;;;;;;35.67;12.73;;;5.70;99.90;;;;;;5099029;28;19904;-74
2022/12/03 11:58:26;;;;;;;37.70;14.00;;;5.70;99.90;;;;;;5098689;28;20143;-74
2022/12/03 12:00:57;;;;;;;37.17;14.67;;;5.80;99.90;;;;;;5105257;28;20032;-74
2022/12/03 12:03:24;;;;;;;34.83;12.77;;;5.80;99.90;;;;;;5101729;28;20035;-76
2022/12/03 12:06:02;;;;;;;36.00;14.33;;;5.80;99.90;;;;;;5103239;28;20016;-73
2022/12/03 12:08:28;;;;;;;40.83;14.13;;;5.80;99.90;;;;;;5094735;28;20074;-73
2022/12/03 12:10:54;;;;;;;37.13;13.70;;;5.80;99.90;;;;;;5097236;28;20464;-73
2022/12/03 12:13:34;;;;;;;35.73;13.80;;;5.80;99.90;;;;;;5095425;28;20035;-72
2022/12/03 12:16:04;;;;;;;40.43;15.20;;;5.90;99.90;;;;;;5100013;28;20043;-73
2022/12/03 12:18:37;;;;;;;35.77;14.10;;;5.90;99.90;;;;;;5096707;28;20028;-73
2022/12/03 12:21:41;;;;;;;34.90;13.53;;;5.90;99.90;;;;;;5110121;28;20102;-73
2022/12/03 12:24:51;;;;;;;35.30;13.53;;;5.90;99.90;;;;;;5105955;28;20031;-73
2022/12/03 12:27:21;;;;;;;32.63;13.70;;;5.90;99.90;;;;;;5026240;28;20040;-74
2022/12/03 12:29:55;;;;;;;32.77;12.97;;;5.90;99.90;;;;;;5009161;28;20033;-75
2022/12/03 12:32:49;;;;;;;33.57;13.67;;;5.90;99.90;;;;;;4997708;28;20247;-74
2022/12/03 12:35:21;;;;;;;32.20;13.50;;;5.90;99.90;;;;;;4965462;28;20060;-74
2022/12/03 12:37:54;;;;;;;;;;;5.90;99.90;;;;;;5016964;28;20542;-73
2022/12/03 12:40:28;;;;;;;29.50;11.70;;;5.80;99.90;;;;;;5000459;28;19913;-73
2022/12/03 12:42:57;;;;;;;33.37;12.47;;;5.80;99.90;;;;;;5014330;28;20030;-73
2022/12/03 12:45:29;;;;;;;38.77;13.63;;;5.80;99.90;;;;;;5029100;28;20050;-74
2022/12/03 12:48:23;;;;;;;34.97;13.48;;;5.80;99.90;;;;;;5013903;28;20036;-73
2022/12/03 12:50:55;;;;;;;33.63;13.07;;;5.90;99.90;;;;;;5023941;28;20071;-74
2022/12/03 12:53:22;;;;;;;34.47;13.40;;;5.90;99.90;;;;;;5018904;28;20065;-75
2022/12/03 12:55:52;;;;;;;32.37;13.03;;;5.90;99.90;;;;;;5010954;28;20068;-73
2022/12/03 12:58:19;;;;;;;30.47;12.10;;;5.90;99.90;;;;;;5071031;28;20040;-74
2022/12/03 13:00:57;;;;;;;32.80;12.70;;;5.90;99.90;;;;;;5095859;28;20027;-75
2022/12/03 13:03:27;;;;;;;30.53;12.67;;;5.90;99.90;;;;;;5101967;28;20024;-74
2022/12/03 13:05:55;;;;;;;32.20;13.30;;;5.90;99.90;;;;;;5102282;28;20076;-75
2022/12/03 13:08:31;;;;;;;29.70;12.80;;;5.90;99.90;;;;;;5112134;28;20173;-75
2022/12/03 13:11:00;;;;;;;32.83;12.83;;;5.80;99.90;;;;;;5109698;28;20377;-76